sensor_id;sensor_type;location;lat;lon;timestamp;pressure;altitude;pressure_sealevel;temperature;humidity
33506;BME280;19843;51.040;13.782;2023-02-12T00:01:20;102086.97;;;6.70;100.00
33506;BME280;19843;51.040;13.782;2023-02-12T00:03:48;102084.16;;;6.76;100.00
33506;BME280;19843;51.040;13.782;2023-02-12T00:06:15;102089.53;;;6.75;100.00
33506;BME280;19843;51.040;13.782;2023-02-12T00:08:47;102090.41;;;6.75;100.00
33506;BME280;19843;51.040;13.782;2023-02-12T00:11:16;102099.47;;;6.68;100.00
33506;BME280;19843;51.040;13.782;2023-02-12T00:13:43;102099.13;;;6.82;100.00
33506;BME280;19843;51.040;13.782;2023-02-12T00:16:11;102100.44;;;6.65;100.00
33506;BME280;19843;51.040;13.782;2023-02-12T00:18:39;102088.72;;;6.71;100.00
33506;BME280;19843;51.040;13.782;2023-02-12T00:21:07;102088.50;;;6.80;100.00
33506;BME280;19843;51.040;13.782;2023-02-12T00:23:35;102097.94;;;6.94;100.00
33506;BME280;19843;51.040;13.782;2023-02-12T00:26:05;102105.13;;;6.90;100.00
33506;BME280;19843;51.040;13.782;2023-02-12T00:28:33;102103.50;;;6.86;100.00
33506;BME280;19843;51.040;13.782;2023-02-12T00:31:03;102101.72;;;6.85;100.00
33506;BME280;19843;51.040;13.782;2023-02-12T00:33:31;102107.78;;;6.92;100.00
33506;BME280;19843;51.040;13.782;2023-02-12T00:35:58;102103.44;;;6.87;100.00
33506;BME280;19843;51.040;13.782;2023-02-12T00:38:25;102101.00;;;6.77;100.00
33506;BME280;19843;51.040;13.782;2023-02-12T00:40:52;102107.03;;;6.85;100.00
33506;BME280;19843;51.040;13.782;2023-02-12T00:43:21;102098.22;;;6.83;100.00
33506;BME280;19843;51.040;13.782;2023-02-12T00:45:48;102106.09;;;6.87;100.00
33506;BME280;19843;51.040;13.782;2023-02-12T00:48:17;102105.13;;;6.90;100.00
33506;BME280;19843;51.040;13.782;2023-02-12T00:50:44;102105.25;;;6.85;100.00
33506;BME280;19843;51.040;13.782;2023-02-12T00:53:12;102103.41;;;6.89;100.00
33506;BME280;19843;51.040;13.782;2023-02-12T00:55:40;102111.44;;;6.87;100.00
33506;BME280;19843;51.040;13.782;2023-02-12T00:58:07;102104.19;;;6.93;100.00
33506;BME280;19843;51.040;13.782;2023-02-12T01:00:36;102105.09;;;6.93;100.00
33506;BME280;19843;51.040;13.782;2023-02-12T01:03:03;102108.53;;;6.97;100.00
33506;BME280;19843;51.040;13.782;2023-02-12T01:05:31;102121.31;;;6.84;100.00
33506;BME280;19843;51.040;13.782;2023-02-12T01:07:59;102119.09;;;7.01;100.00
33506;BME280;19843;51.040;13.782;2023-02-12T01:10:26;102123.66;;;6.96;100.00
33506;BME280;19843;51.040;13.782;2023-02-12T01:12:54;102132.72;;;6.90;100.00
33506;BME280;19843;51.040;13.782;2023-02-12T01:15:21;102125.00;;;6.77;100.00
33506;BME280;19843;51.040;13.782;2023-02-12T01:17:51;102128.97;;;6.98;100.00
33506;BME280;19843;51.040;13.782;2023-02-12T01:20:19;102136.16;;;6.94;100.00
33506;BME280;19843;51.040;13.782;2023-02-12T01:22:47;102126.66;;;6.84;100.00
33506;BME280;19843;51.040;13.782;2023-02-12T01:25:14;102123.78;;;6.92;100.00
33506;BME280;19843;51.040;13.782;2023-02-12T01:27:45;102130.19;;;6.83;100.00
33506;BME280;19843;51.040;13.782;2023-02-12T01:30:16;102123.66;;;6.96;100.00
33506;BME280;19843;51.040;13.782;2023-02-12T01:32:47;102122.16;;;6.86;100.00
33506;BME280;19843;51.040;13.782;2023-02-12T01:35:15;102126.53;;;6.88;100.00
33506;BME280;19843;51.040;13.782;2023-02-12T01:37:43;102123.13;;;6.82;100.00
33506;BME280;19843;51.040;13.782;2023-02-12T01:40:11;102123.69;;;6.95;100.00
33506;BME280;19843;51.040;13.782;2023-02-12T01:42:40;102123.16;;;6.80;100.00
33506;BME280;19843;51.040;13.782;2023-02-12T01:45:29;102117.47;;;6.96;100.00
33506;BME280;19843;51.040;13.782;2023-02-12T01:48:06;102118.34;;;6.95;100.00
33506;BME280;19843;51.040;13.782;2023-02-12T01:50:34;102128.88;;;7.01;100.00
33506;BME280;19843;51.040;13.782;2023-02-12T01:53:02;102121.63;;;7.06;100.00
33506;BME280;19843;51.040;13.782;2023-02-12T01:55:29;102130.72;;;6.99;100.00
33506;BME280;19843;51.040;13.782;2023-02-12T01:57:56;102131.56;;;6.99;100.00
33506;BME280;19843;51.040;13.782;2023-02-12T02:00:24;102130.16;;;6.86;100.00
33506;BME280;19843;51.040;13.782;2023-02-12T02:02:51;102131.69;;;6.95;100.00
33506;BME280;19843;51.040;13.782;2023-02-12T02:05:22;102131.03;;;6.86;100.00
33506;BME280;19843;51.040;13.782;2023-02-12T02:07:51;102136.28;;;6.88;100.00
33506;BME280;19843;51.040;13.782;2023-02-12T02:10:20;102126.78;;;6.78;100.00
33506;BME280;19843;51.040;13.782;2023-02-12T02:12:47;102135.31;;;6.92;100.00
33506;BME280;19843;51.040;13.782;2023-02-12T02:15:32;102131.06;;;6.83;100.00
33506;BME280;19843;51.040;13.782;2023-02-12T02:18:01;102129.97;;;6.92;100.00
33506;BME280;19843;51.040;13.782;2023-02-12T02:20:48;102128.78;;;7.04;100.00
33506;BME280;19843;51.040;13.782;2023-02-12T02:23:38;102127.44;;;6.87;100.00
33506;BME280;19843;51.040;13.782;2023-02-12T02:28:58;102126.13;;;7.04;100.00
33506;BME280;19843;51.040;13.782;2023-02-12T02:31:33;102129.63;;;7.07;100.00
33506;BME280;19843;51.040;13.782;2023-02-12T02:34:07;102129.94;;;6.95;100.00
33506;BME280;19843;51.040;13.782;2023-02-12T02:36:39;102121.72;;;7.03;100.00
33506;BME280;19843;51.040;13.782;2023-02-12T02:39:26;102131.66;;;6.96;100.00
33506;BME280;19843;51.040;13.782;2023-02-12T02:41:56;102138.09;;;6.87;100.00
33506;BME280;19843;51.040;13.782;2023-02-12T02:44:27;102135.28;;;6.94;100.00
33506;BME280;19843;51.040;13.782;2023-02-12T02:46:56;102130.66;;;7.02;100.00
33506;BME280;19843;51.040;13.782;2023-02-12T02:49:26;102137.94;;;6.95;100.00
33506;BME280;19843;51.040;13.782;2023-02-12T02:51:58;102139.56;;;7.01;100.00
33506;BME280;19843;51.040;13.782;2023-02-12T02:54:28;102143.22;;;6.97;100.00
33506;BME280;19843;51.040;13.782;2023-02-12T02:56:58;102142.09;;;7.07;100.00
33506;BME280;19843;51.040;13.782;2023-02-12T02:59:28;102149.03;;;7.13;100.00
33506;BME280;19843;51.040;13.782;2023-02-12T03:02:01;102151.59;;;7.17;100.00
33506;BME280;19843;51.040;13.782;2023-02-12T03:04:31;102145.59;;;7.09;100.00
33506;BME280;19843;51.040;13.782;2023-02-12T03:07:02;102160.41;;;7.21;100.00
33506;BME280;19843;51.040;13.782;2023-02-12T03:09:31;102164.88;;;7.20;100.00
33506;BME280;19843;51.040;13.782;2023-02-12T03:12:02;102164.81;;;7.22;100.00
33506;BME280;19843;51.040;13.782;2023-02-12T03:14:32;102164.09;;;7.15;100.00
33506;BME280;19843;51.040;13.782;2023-02-12T03:17:03;102166.69;;;7.18;100.00
33506;BME280;19843;51.040;13.782;2023-02-12T03:19:33;102178.25;;;7.19;100.00
33506;BME280;19843;51.040;13.782;2023-02-12T03:22:03;102169.44;;;7.15;100.00
33506;BME280;19843;51.040;13.782;2023-02-12T03:24:31;102173.28;;;7.03;100.00
33506;BME280;19843;51.040;13.782;2023-02-12T03:27:02;102177.81;;;7.00;100.00
33506;BME280;19843;51.040;13.782;2023-02-12T03:29:31;102176.81;;;7.04;100.00
33506;BME280;19843;51.040;13.782;2023-02-12T03:32:03;102182.03;;;7.08;100.00
33506;BME280;19843;51.040;13.782;2023-02-12T03:34:38;102191.06;;;7.03;100.00
33506;BME280;19843;51.040;13.782;2023-02-12T03:37:08;102193.47;;;6.76;100.00
33506;BME280;19843;51.040;13.782;2023-02-12T03:39:38;102201.09;;;6.93;100.00
33506;BME280;19843;51.040;13.782;2023-02-12T03:42:10;102204.44;;;7.01;100.00
33506;BME280;19843;51.040;13.782;2023-02-12T03:44:43;102206.25;;;6.99;100.00
33506;BME280;19843;51.040;13.782;2023-02-12T03:47:17;102209.16;;;6.90;100.00
33506;BME280;19843;51.040;13.782;2023-02-12T03:49:48;102214.47;;;6.92;100.00
33506;BME280;19843;51.040;13.782;2023-02-12T03:52:18;102216.34;;;6.86;100.00
33506;BME280;19843;51.040;13.782;2023-02-12T03:54:45;102217.97;;;6.94;100.00
33506;BME280;19843;51.040;13.782;2023-02-12T03:57:14;102226.09;;;6.87;100.00
33506;BME280;19843;51.040;13.782;2023-02-12T03:59:44;102233.03;;;6.96;100.00
33506;BME280;19843;51.040;13.782;2023-02-12T04:02:12;102231.44;;;6.87;100.00
33506;BME280;19843;51.040;13.782;2023-02-12T04:04:42;102235.91;;;6.85;100.00
33506;BME280;19843;51.040;13.782;2023-02-12T04:07:10;102238.66;;;6.84;100.00
33506;BME280;19843;51.040;13.782;2023-02-12T04:09:38;102243.91;;;6.85;100.00
33506;BME280;19843;51.040;13.782;2023-02-12T04:12:09;102244.56;;;6.97;100.00
33506;BME280;19843;51.040;13.782;2023-02-12T04:14:40;102241.00;;;6.98;100.00
33506;BME280;19843;51.040;13.782;2023-02-12T04:17:12;102242.69;;;7.02;100.00
33506;BME280;19843;51.040;13.782;2023-02-12T04:19:46;102247.31;;;6.94;100.00
33506;BME280;19843;51.040;13.782;2023-02-12T04:22:20;102249.16;;;6.90;100.00
33506;BME280;19843;51.040;13.782;2023-02-12T04:24:54;102244.63;;;6.94;100.00
33506;BME280;19843;51.040;13.782;2023-02-12T04:27:28;102251.91;;;6.85;100.00
33506;BME280;19843;51.040;13.782;2023-02-12T04:30:00;102243.69;;;6.96;100.00
33506;BME280;19843;51.040;13.782;2023-02-12T04:32:31;102253.34;;;7.02;100.00
33506;BME280;19843;51.040;13.782;2023-02-12T04:35:03;102250.84;;;6.94;100.00
33506;BME280;19843;51.040;13.782;2023-02-12T04:37:34;102247.53;;;6.83;100.00
33506;BME280;19843;51.040;13.782;2023-02-12T04:40:05;102243.78;;;6.93;100.00
33506;BME280;19843;51.040;13.782;2023-02-12T04:42:39;102252.06;;;6.79;100.00
33506;BME280;19843;51.040;13.782;2023-02-12T04:45:08;102245.63;;;6.88;100.00
33506;BME280;19843;51.040;13.782;2023-02-12T04:47:35;102250.88;;;6.93;100.00
33506;BME280;19843;51.040;13.782;2023-02-12T04:50:04;102257.63;;;6.70;100.00
33506;BME280;19843;51.040;13.782;2023-02-12T04:52:32;102259.25;;;6.76;100.00
33506;BME280;19843;51.040;13.782;2023-02-12T04:54:59;102250.25;;;6.81;100.00
33506;BME280;19843;51.040;13.782;2023-02-12T04:57:26;102258.09;;;6.87;100.00
33506;BME280;19843;51.040;13.782;2023-02-12T04:59:54;102261.16;;;6.69;100.00
33506;BME280;19843;51.040;13.782;2023-02-12T05:02:21;102258.19;;;6.83;100.00
33506;BME280;19843;51.040;13.782;2023-02-12T05:04:49;102257.44;;;6.76;100.00
33506;BME280;19843;51.040;13.782;2023-02-12T05:07:18;102265.72;;;6.65;100.00
33506;BME280;19843;51.040;13.782;2023-02-12T05:09:45;102260.28;;;6.70;100.00
33506;BME280;19843;51.040;13.782;2023-02-12T05:12:12;102263.84;;;6.67;100.00
33506;BME280;19843;51.040;13.782;2023-02-12T05:14:39;102266.63;;;6.63;100.00
33506;BME280;19843;51.040;13.782;2023-02-12T05:17:07;102261.25;;;6.66;100.00
33506;BME280;19843;51.040;13.782;2023-02-12T05:19:34;102265.72;;;6.65;100.00
33506;BME280;19843;51.040;13.782;2023-02-12T05:22:01;102270.22;;;6.62;100.00
33506;BME280;19843;51.040;13.782;2023-02-12T05:24:30;102264.84;;;6.63;100.00
33506;BME280;19843;51.040;13.782;2023-02-12T05:26:57;102272.50;;;6.79;100.00
33506;BME280;19843;51.040;13.782;2023-02-12T05:29:25;102278.56;;;6.87;100.00
33506;BME280;19843;51.040;13.782;2023-02-12T05:31:52;102275.06;;;6.85;100.00
33506;BME280;19843;51.040;13.782;2023-02-12T05:34:19;102283.16;;;6.79;100.00
33506;BME280;19843;51.040;13.782;2023-02-12T05:36:47;102279.50;;;6.84;100.00
33506;BME280;19843;51.040;13.782;2023-02-12T05:39:14;102278.13;;;6.65;100.00
33506;BME280;19843;51.040;13.782;2023-02-12T05:41:43;102284.31;;;6.67;100.00
33506;BME280;19843;51.040;13.782;2023-02-12T05:44:10;102282.50;;;6.67;100.00
33506;BME280;19843;51.040;13.782;2023-02-12T05:46:40;102284.13;;;6.76;100.00
33506;BME280;19843;51.040;13.782;2023-02-12T05:49:08;102285.06;;;6.74;100.00
33506;BME280;19843;51.040;13.782;2023-02-12T05:51:36;102276.97;;;6.78;100.00
33506;BME280;19843;51.040;13.782;2023-02-12T05:54:04;102285.16;;;6.69;100.00
33506;BME280;19843;51.040;13.782;2023-02-12T05:56:32;102289.44;;;6.76;100.00
33506;BME280;19843;51.040;13.782;2023-02-12T05:59:02;102286.63;;;6.84;100.00
33506;BME280;19843;51.040;13.782;2023-02-12T06:01:31;102293.69;;;6.86;100.00
33506;BME280;19843;51.040;13.782;2023-02-12T06:03:59;102287.84;;;6.69;100.00
33506;BME280;19843;51.040;13.782;2023-02-12T06:06:26;102297.53;;;6.72;100.00
33506;BME280;19843;51.040;13.782;2023-02-12T06:08:54;102299.25;;;6.76;100.00
33506;BME280;19843;51.040;13.782;2023-02-12T06:11:21;102295.44;;;6.87;100.00
33506;BME280;19843;51.040;13.782;2023-02-12T06:13:49;102299.34;;;6.71;100.00
33506;BME280;19843;51.040;13.782;2023-02-12T06:16:19;102307.91;;;6.87;100.00
33506;BME280;19843;51.040;13.782;2023-02-12T06:18:47;102313.97;;;6.94;100.00
33506;BME280;19843;51.040;13.782;2023-02-12T06:21:15;102313.91;;;6.97;100.00
33506;BME280;19843;51.040;13.782;2023-02-12T06:23:42;102313.97;;;6.95;100.00
33506;BME280;19843;51.040;13.782;2023-02-12T06:26:10;102320.38;;;6.86;100.00
33506;BME280;19843;51.040;13.782;2023-02-12T06:28:37;102321.06;;;6.95;100.00
33506;BME280;19843;51.040;13.782;2023-02-12T06:31:05;102322.88;;;6.93;100.00
33506;BME280;19843;51.040;13.782;2023-02-12T06:33:44;102326.38;;;6.96;100.00
33506;BME280;19843;51.040;13.782;2023-02-12T06:36:11;102334.44;;;6.93;100.00
33506;BME280;19843;51.040;13.782;2023-02-12T06:38:38;102336.22;;;6.93;100.00
33506;BME280;19843;51.040;13.782;2023-02-12T06:41:06;102339.78;;;6.93;100.00
33506;BME280;19843;51.040;13.782;2023-02-12T06:43:33;102350.38;;;6.96;100.00
33506;BME280;19843;51.040;13.782;2023-02-12T06:46:00;102345.78;;;7.03;100.00
33506;BME280;19843;51.040;13.782;2023-02-12T06:48:28;102350.25;;;7.02;100.00
33506;BME280;19843;51.040;13.782;2023-02-12T06:51:01;102366.31;;;6.99;100.00
33506;BME280;19843;51.040;13.782;2023-02-12T06:53:29;102363.81;;;6.92;100.00
33506;BME280;19843;51.040;13.782;2023-02-12T06:55:58;102366.28;;;7.01;100.00
33506;BME280;19843;51.040;13.782;2023-02-12T06:58:26;102367.81;;;7.13;100.00
33506;BME280;19843;51.040;13.782;2023-02-12T07:00:53;102365.13;;;7.14;100.00
33506;BME280;19843;51.040;13.782;2023-02-12T07:03:20;102373.84;;;7.22;100.00
33506;BME280;19843;51.040;13.782;2023-02-12T07:05:48;102372.06;;;7.23;100.00
33506;BME280;19843;51.040;13.782;2023-02-12T07:08:16;102376.34;;;7.30;100.00
33506;BME280;19843;51.040;13.782;2023-02-12T07:10:47;102372.09;;;7.20;100.00
33506;BME280;19843;51.040;13.782;2023-02-12T07:13:14;102378.13;;;7.29;100.00
33506;BME280;19843;51.040;13.782;2023-02-12T07:15:41;102375.47;;;7.29;100.00
33506;BME280;19843;51.040;13.782;2023-02-12T07:18:08;102386.19;;;7.26;100.00
33506;BME280;19843;51.040;13.782;2023-02-12T07:20:36;102380.66;;;7.36;100.00
33506;BME280;19843;51.040;13.782;2023-02-12T07:23:03;102388.84;;;7.28;100.00
33506;BME280;19843;51.040;13.782;2023-02-12T07:25:32;102381.69;;;7.30;100.00
33506;BME280;19843;51.040;13.782;2023-02-12T07:28:00;102391.28;;;7.39;100.00
33506;BME280;19843;51.040;13.782;2023-02-12T07:30:27;102392.97;;;7.43;100.00
33506;BME280;19843;51.040;13.782;2023-02-12T07:32:54;102386.78;;;7.41;100.00
33506;BME280;19843;51.040;13.782;2023-02-12T07:35:22;102392.06;;;7.42;100.00
33506;BME280;19843;51.040;13.782;2023-02-12T07:37:49;102391.16;;;7.45;100.00
33506;BME280;19843;51.040;13.782;2023-02-12T07:40:16;102394.59;;;7.48;100.00
33506;BME280;19843;51.040;13.782;2023-02-12T07:42:45;102396.50;;;7.43;100.00
33506;BME280;19843;51.040;13.782;2023-02-12T07:45:18;102394.72;;;7.44;100.00
33506;BME280;19843;51.040;13.782;2023-02-12T07:47:45;102403.50;;;7.49;100.00
33506;BME280;19843;51.040;13.782;2023-02-12T07:50:13;102405.25;;;7.50;100.00
33506;BME280;19843;51.040;13.782;2023-02-12T07:52:40;102405.94;;;7.58;100.00
33506;BME280;19843;51.040;13.782;2023-02-12T07:55:07;102394.38;;;7.59;100.00
33506;BME280;19843;51.040;13.782;2023-02-12T07:57:35;102408.78;;;7.52;100.00
33506;BME280;19843;51.040;13.782;2023-02-12T08:00:04;102415.16;;;7.45;100.00
33506;BME280;19843;51.040;13.782;2023-02-12T08:02:32;102411.44;;;7.52;100.00
33506;BME280;19843;51.040;13.782;2023-02-12T08:04:59;102409.56;;;7.56;100.00
33506;BME280;19843;51.040;13.782;2023-02-12T08:07:27;102417.56;;;7.57;100.00
33506;BME280;19843;51.040;13.782;2023-02-12T08:09:54;102422.78;;;7.63;100.00
33506;BME280;19843;51.040;13.782;2023-02-12T08:12:21;102416.19;;;7.78;100.00
33506;BME280;19843;51.040;13.782;2023-02-12T08:14:49;102416.16;;;7.80;100.00
33506;BME280;19843;51.040;13.782;2023-02-12T08:17:18;102408.81;;;7.88;100.00
33506;BME280;19843;51.040;13.782;2023-02-12T08:19:45;102412.22;;;7.94;99.98
33506;BME280;19843;51.040;13.782;2023-02-12T08:22:12;102419.50;;;7.88;99.38
33506;BME280;19843;51.040;13.782;2023-02-12T08:24:40;102421.16;;;7.95;99.15
33506;BME280;19843;51.040;13.782;2023-02-12T08:27:08;102429.06;;;7.98;99.10
33506;BME280;19843;51.040;13.782;2023-02-12T08:29:35;102423.72;;;7.98;98.98
33506;BME280;19843;51.040;13.782;2023-02-12T08:32:03;102431.66;;;8.01;98.79
33506;BME280;19843;51.040;13.782;2023-02-12T08:34:33;102430.25;;;7.86;98.88
33506;BME280;19843;51.040;13.782;2023-02-12T08:37:01;102434.56;;;7.92;98.22
33506;BME280;19843;51.040;13.782;2023-02-12T08:39:30;102429.16;;;7.95;98.05
33506;BME280;19843;51.040;13.782;2023-02-12T08:41:58;102430.81;;;7.99;97.99
33506;BME280;19843;51.040;13.782;2023-02-12T08:44:25;102427.75;;;8.16;96.88
33506;BME280;19843;51.040;13.782;2023-02-12T08:46:53;102437.72;;;8.09;97.14
33506;BME280;19843;51.040;13.782;2023-02-12T08:49:22;102435.88;;;8.11;97.09
33506;BME280;19843;51.040;13.782;2023-02-12T08:51:53;102444.78;;;8.10;97.26
33506;BME280;19843;51.040;13.782;2023-02-12T08:54:21;102449.16;;;8.14;97.02
33506;BME280;19843;51.040;13.782;2023-02-12T08:56:49;102445.94;;;8.02;97.72
33506;BME280;19843;51.040;13.782;2023-02-12T08:59:17;102448.19;;;8.17;97.38
33506;BME280;19843;51.040;13.782;2023-02-12T09:01:44;102447.47;;;8.10;97.15
33506;BME280;19843;51.040;13.782;2023-02-12T09:04:12;102450.13;;;8.10;97.14
33506;BME280;19843;51.040;13.782;2023-02-12T09:06:40;102461.94;;;8.02;96.93
33506;BME280;19843;51.040;13.782;2023-02-12T09:09:09;102462.56;;;8.13;97.10
33506;BME280;19843;51.040;13.782;2023-02-12T09:11:36;102465.09;;;8.19;96.48
33506;BME280;19843;51.040;13.782;2023-02-12T09:14:04;102459.72;;;8.19;96.42
33506;BME280;19843;51.040;13.782;2023-02-12T09:16:32;102473.16;;;8.18;96.28
33506;BME280;19843;51.040;13.782;2023-02-12T09:19:00;102469.34;;;8.26;96.16
33506;BME280;19843;51.040;13.782;2023-02-12T09:21:28;102467.41;;;8.33;95.93
33506;BME280;19843;51.040;13.782;2023-02-12T09:23:56;102471.78;;;8.35;95.96
33506;BME280;19843;51.040;13.782;2023-02-12T09:26:24;102465.53;;;8.38;95.38
33506;BME280;19843;51.040;13.782;2023-02-12T09:28:52;102462.81;;;8.41;95.99
33506;BME280;19843;51.040;13.782;2023-02-12T09:31:21;102475.69;;;8.60;94.26
33506;BME280;19843;51.040;13.782;2023-02-12T09:33:52;102474.81;;;8.59;94.74
33506;BME280;19843;51.040;13.782;2023-02-12T09:36:20;102476.44;;;8.65;94.67
33506;BME280;19843;51.040;13.782;2023-02-12T09:38:48;102482.34;;;8.79;94.32
33506;BME280;19843;51.040;13.782;2023-02-12T09:41:33;102481.19;;;8.88;93.84
33506;BME280;19843;51.040;13.782;2023-02-12T09:44:05;102474.22;;;8.82;93.68
33506;BME280;19843;51.040;13.782;2023-02-12T09:46:34;102485.47;;;8.95;92.49
33506;BME280;19843;51.040;13.782;2023-02-12T09:49:06;102484.66;;;8.91;93.18
33506;BME280;19843;51.040;13.782;2023-02-12T09:51:35;102488.22;;;8.92;91.53
33506;BME280;19843;51.040;13.782;2023-02-12T09:54:04;102487.69;;;8.79;92.24
33506;BME280;19843;51.040;13.782;2023-02-12T09:56:34;102490.03;;;8.91;92.40
33506;BME280;19843;51.040;13.782;2023-02-12T09:59:04;102490.88;;;8.92;92.42
33506;BME280;19843;51.040;13.782;2023-02-12T10:01:32;102492.13;;;8.78;93.15
33506;BME280;19843;51.040;13.782;2023-02-12T10:04:00;102488.69;;;8.75;93.40
33506;BME280;19843;51.040;13.782;2023-02-12T10:06:32;102488.00;;;8.67;93.81
33506;BME280;19843;51.040;13.782;2023-02-12T10:09:04;102496.94;;;8.66;94.63
33506;BME280;19843;51.040;13.782;2023-02-12T10:13:51;102495.44;;;9.21;92.32
33506;BME280;19843;51.040;13.782;2023-02-12T10:16:31;102506.72;;;9.32;90.89
33506;BME280;19843;51.040;13.782;2023-02-12T10:19:13;102500.56;;;8.97;91.63
33506;BME280;19843;51.040;13.782;2023-02-12T10:21:55;102501.44;;;8.98;91.58
33506;BME280;19843;51.040;13.782;2023-02-12T10:24:38;102502.69;;;8.85;91.41
33506;BME280;19843;51.040;13.782;2023-02-12T10:27:12;102503.75;;;8.79;93.28
33506;BME280;19843;51.040;13.782;2023-02-12T10:29:44;102499.03;;;8.87;92.53
33506;BME280;19843;51.040;13.782;2023-02-12T10:32:20;102501.94;;;8.80;92.92
33506;BME280;19843;51.040;13.782;2023-02-12T10:34:51;102495.66;;;8.81;92.81
33506;BME280;19843;51.040;13.782;2023-02-12T10:37:27;102499.22;;;8.81;92.65
33506;BME280;19843;51.040;13.782;2023-02-12T10:40:03;102494.69;;;8.83;92.85
33506;BME280;19843;51.040;13.782;2023-02-12T10:42:36;102488.03;;;8.99;92.10
33506;BME280;19843;51.040;13.782;2023-02-12T10:45:11;102492.00;;;8.83;92.83
33506;BME280;19843;51.040;13.782;2023-02-12T10:47:40;102491.97;;;8.85;92.55
33506;BME280;19843;51.040;13.782;2023-02-12T10:50:17;102492.13;;;8.78;92.35
33506;BME280;19843;51.040;13.782;2023-02-12T10:52:47;102497.47;;;8.78;92.49
33506;BME280;19843;51.040;13.782;2023-02-12T10:55:26;102489.53;;;8.77;92.58
33506;BME280;19843;51.040;13.782;2023-02-12T10:57:55;102490.28;;;8.81;91.58
33506;BME280;19843;51.040;13.782;2023-02-12T11:00:28;102490.97;;;8.90;91.84
33506;BME280;19843;51.040;13.782;2023-02-12T11:03:02;102487.31;;;8.93;90.78
33506;BME280;19843;51.040;13.782;2023-02-12T11:05:32;102493.25;;;9.04;91.35
33506;BME280;19843;51.040;13.782;2023-02-12T11:08:01;102491.88;;;9.22;89.64
33506;BME280;19843;51.040;13.782;2023-02-12T11:10:31;102484.13;;;9.11;87.56
33506;BME280;19843;51.040;13.782;2023-02-12T11:13:00;102484.47;;;9.30;88.21
33506;BME280;19843;51.040;13.782;2023-02-12T11:15:37;102491.94;;;9.50;87.21
33506;BME280;19843;51.040;13.782;2023-02-12T11:18:21;102479.53;;;9.48;87.76
33506;BME280;19843;51.040;13.782;2023-02-12T11:20:53;102483.75;;;9.25;87.25
33506;BME280;19843;51.040;13.782;2023-02-12T11:23:25;102484.19;;;9.41;87.64
33506;BME280;19843;51.040;13.782;2023-02-12T11:25:56;102475.69;;;9.56;87.00
33506;BME280;19843;51.040;13.782;2023-02-12T11:28:24;102464.41;;;9.75;86.52
33506;BME280;19843;51.040;13.782;2023-02-12T11:30:56;102477.97;;;9.70;84.91
33506;BME280;19843;51.040;13.782;2023-02-12T11:33:26;102476.84;;;9.77;84.29
33506;BME280;19843;51.040;13.782;2023-02-12T11:35:57;102479.53;;;9.77;83.90
33506;BME280;19843;51.040;13.782;2023-02-12T11:38:29;102477.00;;;9.73;84.36
33506;BME280;19843;51.040;13.782;2023-02-12T11:41:01;102478.94;;;9.68;84.85
33506;BME280;19843;51.040;13.782;2023-02-12T11:43:30;102479.81;;;9.68;84.77
33506;BME280;19843;51.040;13.782;2023-02-12T11:46:03;102480.94;;;9.59;83.75
33506;BME280;19843;51.040;13.782;2023-02-12T11:48:36;102481.66;;;9.66;84.05
33506;BME280;19843;51.040;13.782;2023-02-12T11:51:06;102478.41;;;9.55;84.38
33506;BME280;19843;51.040;13.782;2023-02-12T11:53:38;102471.47;;;9.49;85.26
33506;BME280;19843;51.040;13.782;2023-02-12T11:56:09;102473.22;;;9.49;84.16
33506;BME280;19843;51.040;13.782;2023-02-12T11:58:37;102475.84;;;9.52;84.27
33506;BME280;19843;51.040;13.782;2023-02-12T12:01:13;102479.16;;;9.60;83.44
33506;BME280;19843;51.040;13.782;2023-02-12T12:03:52;102474.63;;;9.62;83.17
33506;BME280;19843;51.040;13.782;2023-02-12T12:06:28;102468.56;;;9.55;84.40
33506;BME280;19843;51.040;13.782;2023-02-12T12:09:02;102469.91;;;9.70;83.16
33506;BME280;19843;51.040;13.782;2023-02-12T12:11:39;102471.03;;;9.63;82.27
33506;BME280;19843;51.040;13.782;2023-02-12T12:14:15;102459.34;;;9.66;82.77
33506;BME280;19843;51.040;13.782;2023-02-12T12:16:53;102469.28;;;9.60;82.02
33506;BME280;19843;51.040;13.782;2023-02-12T12:19:42;102470.44;;;9.22;83.49
33506;BME280;19843;51.040;13.782;2023-02-12T12:22:27;102466.56;;;9.32;84.34
33506;BME280;19843;51.040;13.782;2023-02-12T12:25:03;102480.63;;;9.40;83.83
33506;BME280;19843;51.040;13.782;2023-02-12T12:27:37;102473.88;;;9.27;84.19
33506;BME280;19843;51.040;13.782;2023-02-12T12:30:38;102464.91;;;9.28;83.20
33506;BME280;19843;51.040;13.782;2023-02-12T12:33:14;102467.56;;;9.28;83.83
33506;BME280;19843;51.040;13.782;2023-02-12T12:35:49;102463.69;;;9.09;84.01
33506;BME280;19843;51.040;13.782;2023-02-12T12:38:27;102468.53;;;9.26;83.73
33506;BME280;19843;51.040;13.782;2023-02-12T12:41:03;102457.22;;;9.16;83.62
33506;BME280;19843;51.040;13.782;2023-02-12T12:43:44;102464.25;;;8.87;85.53
33506;BME280;19843;51.040;13.782;2023-02-12T12:46:30;102456.16;;;8.90;85.54
33506;BME280;19843;51.040;13.782;2023-02-12T12:49:21;102447.72;;;8.73;86.59
33506;BME280;19843;51.040;13.782;2023-02-12T12:52:05;102457.28;;;8.82;86.24
33506;BME280;19843;51.040;13.782;2023-02-12T12:54:46;102453.38;;;8.95;86.84
33506;BME280;19843;51.040;13.782;2023-02-12T12:57:26;102449.72;;;8.97;86.67
33506;BME280;19843;51.040;13.782;2023-02-12T13:03:04;102449.25;;;8.82;87.47
33506;BME280;19843;51.040;13.782;2023-02-12T13:06:09;102447.13;;;8.94;87.42
33506;BME280;19843;51.040;13.782;2023-02-12T13:08:47;102452.47;;;8.94;87.38